Terminal Aerodrome Forecast
Issued by NWS

Home | Current Version | Previous Version | Graphics & Text | Print | Product List | Glossary On
Versions: 1 2 3 4 5 6 7 8 9 10 11 12 13 14 15 16
000
FTUS43 KOAX 200601 RRA
TAFCDR
TAF
KCDR 200601Z 2006/2106 01010KT 6SM -SN BR BKN045
      TEMPO 2006/2010 2SM -SN OVC025
     FM201100 31010KT P6SM BKN060=

USA.gov is the U.S. government's official web portal to all federal, state and local government web resources and services.